sensor_id;sensor_type;location;lat;lon;timestamp;pressure;altitude;pressure_sealevel;temperature;humidity
47742;BME280;33504;52.066;6.096;2023-10-13T00:02:22;101057.82;;;18.85;57.71
47742;BME280;33504;52.066;6.096;2023-10-13T00:04:49;101059.42;;;19.19;57.24
47742;BME280;33504;52.066;6.096;2023-10-13T00:07:16;101048.54;;;19.08;57.41
47742;BME280;33504;52.066;6.096;2023-10-13T00:09:44;101046.23;;;19.29;57.45
47742;BME280;33504;52.066;6.096;2023-10-13T00:12:11;101050.12;;;18.65;58.23
47742;BME280;33504;52.066;6.096;2023-10-13T00:14:38;101047.85;;;19.05;57.94
47742;BME280;33504;52.066;6.096;2023-10-13T00:17:06;101050.28;;;19.04;58.05
47742;BME280;33504;52.066;6.096;2023-10-13T00:19:35;101050.89;;;18.74;58.14
47742;BME280;33504;52.066;6.096;2023-10-13T00:22:02;101050.28;;;18.79;58.11
47742;BME280;33504;52.066;6.096;2023-10-13T00:24:29;101050.84;;;18.84;58.03
47742;BME280;33504;52.066;6.096;2023-10-13T00:26:56;101049.14;;;18.87;57.96
47742;BME280;33504;52.066;6.096;2023-10-13T00:29:23;101046.98;;;19.06;57.94
47742;BME280;33504;52.066;6.096;2023-10-13T00:31:50;101047.43;;;18.71;58.15
47742;BME280;33504;52.066;6.096;2023-10-13T00:34:17;101039.07;;;18.92;57.58
47742;BME280;33504;52.066;6.096;2023-10-13T00:36:44;101040.25;;;18.83;58.45
47742;BME280;33504;52.066;6.096;2023-10-13T00:39:10;101038.59;;;18.93;57.72
47742;BME280;33504;52.066;6.096;2023-10-13T00:41:37;101031.60;;;18.93;57.57
47742;BME280;33504;52.066;6.096;2023-10-13T00:44:04;101034.21;;;19.25;57.12
47742;BME280;33504;52.066;6.096;2023-10-13T00:46:32;101033.46;;;19.60;56.90
47742;BME280;33504;52.066;6.096;2023-10-13T00:49:02;101036.35;;;19.33;57.29
47742;BME280;33504;52.066;6.096;2023-10-13T00:51:30;101035.12;;;18.71;57.99
47742;BME280;33504;52.066;6.096;2023-10-13T00:53:59;101027.50;;;18.72;58.04
47742;BME280;33504;52.066;6.096;2023-10-13T00:56:27;101010.55;;;18.71;57.78
47742;BME280;33504;52.066;6.096;2023-10-13T00:58:55;101019.26;;;18.98;56.97
47742;BME280;33504;52.066;6.096;2023-10-13T01:01:22;101016.12;;;18.83;57.46
47742;BME280;33504;52.066;6.096;2023-10-13T01:03:51;101016.04;;;19.04;57.17
47742;BME280;33504;52.066;6.096;2023-10-13T01:06:19;101015.01;;;18.87;57.02
47742;BME280;33504;52.066;6.096;2023-10-13T01:08:46;101007.68;;;18.87;57.31
47742;BME280;33504;52.066;6.096;2023-10-13T01:11:13;101011.07;;;18.38;58.58
47742;BME280;33504;52.066;6.096;2023-10-13T01:13:40;101009.08;;;18.88;58.00
47742;BME280;33504;52.066;6.096;2023-10-13T01:16:07;101006.15;;;18.36;58.99
47742;BME280;33504;52.066;6.096;2023-10-13T01:18:34;101002.33;;;19.04;57.81
47742;BME280;33504;52.066;6.096;2023-10-13T01:21:04;100994.91;;;18.90;58.06
47742;BME280;33504;52.066;6.096;2023-10-13T01:23:31;100990.75;;;19.17;57.55
47742;BME280;33504;52.066;6.096;2023-10-13T01:25:58;100984.18;;;19.02;57.69
47742;BME280;33504;52.066;6.096;2023-10-13T01:28:25;100986.66;;;18.45;58.43
47742;BME280;33504;52.066;6.096;2023-10-13T01:30:52;100978.57;;;18.76;57.83
47742;BME280;33504;52.066;6.096;2023-10-13T01:33:20;100977.36;;;18.58;58.13
47742;BME280;33504;52.066;6.096;2023-10-13T01:35:47;100977.85;;;18.89;58.21
47742;BME280;33504;52.066;6.096;2023-10-13T01:38:14;100970.82;;;18.66;58.59
47742;BME280;33504;52.066;6.096;2023-10-13T01:40:40;100971.15;;;18.86;57.71
47742;BME280;33504;52.066;6.096;2023-10-13T01:43:07;100965.35;;;18.62;58.05
47742;BME280;33504;52.066;6.096;2023-10-13T01:45:34;100967.51;;;19.06;57.78
47742;BME280;33504;52.066;6.096;2023-10-13T01:48:02;100965.07;;;18.80;57.66
47742;BME280;33504;52.066;6.096;2023-10-13T01:50:29;100953.47;;;18.64;58.44
47742;BME280;33504;52.066;6.096;2023-10-13T01:52:56;100956.03;;;18.64;58.00
47742;BME280;33504;52.066;6.096;2023-10-13T01:55:23;100950.80;;;18.92;57.88
47742;BME280;33504;52.066;6.096;2023-10-13T01:57:50;100941.43;;;18.39;58.46
47742;BME280;33504;52.066;6.096;2023-10-13T02:00:17;100937.28;;;18.84;57.63
47742;BME280;33504;52.066;6.096;2023-10-13T02:02:44;100932.16;;;19.14;57.56
47742;BME280;33504;52.066;6.096;2023-10-13T02:05:11;100929.49;;;19.13;57.64
47742;BME280;33504;52.066;6.096;2023-10-13T02:07:38;100926.55;;;18.52;58.58
47742;BME280;33504;52.066;6.096;2023-10-13T02:10:06;100920.13;;;18.48;58.98
47742;BME280;33504;52.066;6.096;2023-10-13T02:12:34;100923.31;;;18.70;58.54
47742;BME280;33504;52.066;6.096;2023-10-13T02:15:01;100926.82;;;19.13;57.66
47742;BME280;33504;52.066;6.096;2023-10-13T02:17:28;100919.86;;;18.90;57.44
47742;BME280;33504;52.066;6.096;2023-10-13T02:19:55;100916.89;;;18.97;57.26
47742;BME280;33504;52.066;6.096;2023-10-13T02:22:22;100917.12;;;18.89;58.05
47742;BME280;33504;52.066;6.096;2023-10-13T02:24:49;100908.62;;;18.58;58.50
47742;BME280;33504;52.066;6.096;2023-10-13T02:27:16;100908.63;;;18.43;59.01
47742;BME280;33504;52.066;6.096;2023-10-13T02:29:43;100903.80;;;18.44;58.72
47742;BME280;33504;52.066;6.096;2023-10-13T02:32:10;100903.47;;;18.45;58.74
47742;BME280;33504;52.066;6.096;2023-10-13T02:34:37;100900.22;;;18.90;57.83
47742;BME280;33504;52.066;6.096;2023-10-13T02:37:04;100895.46;;;18.67;57.62
47742;BME280;33504;52.066;6.096;2023-10-13T02:39:31;100896.23;;;18.65;58.17
47742;BME280;33504;52.066;6.096;2023-10-13T02:41:58;100886.30;;;18.35;58.71
47742;BME280;33504;52.066;6.096;2023-10-13T02:44:25;100884.13;;;18.54;58.33
47742;BME280;33504;52.066;6.096;2023-10-13T02:46:52;100879.71;;;18.65;58.10
47742;BME280;33504;52.066;6.096;2023-10-13T02:49:19;100878.85;;;19.03;57.45
47742;BME280;33504;52.066;6.096;2023-10-13T02:51:46;100874.97;;;18.92;57.12
47742;BME280;33504;52.066;6.096;2023-10-13T02:54:13;100870.10;;;19.08;57.24
47742;BME280;33504;52.066;6.096;2023-10-13T02:56:40;100864.39;;;18.95;57.45
47742;BME280;33504;52.066;6.096;2023-10-13T02:59:07;100859.42;;;18.83;57.18
47742;BME280;33504;52.066;6.096;2023-10-13T03:01:35;100856.35;;;18.77;57.28
47742;BME280;33504;52.066;6.096;2023-10-13T03:04:03;100857.15;;;18.85;56.92
47742;BME280;33504;52.066;6.096;2023-10-13T03:06:30;100857.35;;;18.74;57.86
47742;BME280;33504;52.066;6.096;2023-10-13T03:08:58;100854.41;;;18.90;57.02
47742;BME280;33504;52.066;6.096;2023-10-13T03:11:26;100849.39;;;19.00;56.89
47742;BME280;33504;52.066;6.096;2023-10-13T03:13:53;100840.86;;;19.10;56.75
47742;BME280;33504;52.066;6.096;2023-10-13T03:16:19;100835.63;;;19.00;56.90
47742;BME280;33504;52.066;6.096;2023-10-13T03:18:47;100833.17;;;19.30;56.74
47742;BME280;33504;52.066;6.096;2023-10-13T03:21:14;100829.18;;;18.97;56.94
47742;BME280;33504;52.066;6.096;2023-10-13T03:23:41;100827.26;;;18.94;56.90
47742;BME280;33504;52.066;6.096;2023-10-13T03:26:09;100825.07;;;19.11;56.64
47742;BME280;33504;52.066;6.096;2023-10-13T03:28:36;100822.45;;;19.03;57.38
47742;BME280;33504;52.066;6.096;2023-10-13T03:31:04;100816.55;;;19.22;56.99
47742;BME280;33504;52.066;6.096;2023-10-13T03:33:31;100811.72;;;19.16;56.72
47742;BME280;33504;52.066;6.096;2023-10-13T03:35:58;100803.44;;;19.45;56.50
47742;BME280;33504;52.066;6.096;2023-10-13T03:38:25;100793.55;;;19.30;56.90
47742;BME280;33504;52.066;6.096;2023-10-13T03:40:51;100791.44;;;18.74;57.26
47742;BME280;33504;52.066;6.096;2023-10-13T03:43:18;100786.73;;;18.80;57.18
47742;BME280;33504;52.066;6.096;2023-10-13T03:45:46;100779.84;;;18.67;57.43
47742;BME280;33504;52.066;6.096;2023-10-13T03:48:15;100774.99;;;18.71;57.34
47742;BME280;33504;52.066;6.096;2023-10-13T03:50:42;100775.71;;;18.82;57.20
47742;BME280;33504;52.066;6.096;2023-10-13T03:53:09;100772.85;;;18.90;57.16
47742;BME280;33504;52.066;6.096;2023-10-13T03:55:36;100773.00;;;18.97;57.11
47742;BME280;33504;52.066;6.096;2023-10-13T03:58:03;100766.90;;;18.93;57.05
47742;BME280;33504;52.066;6.096;2023-10-13T04:00:30;100748.80;;;18.79;56.93
47742;BME280;33504;52.066;6.096;2023-10-13T04:02:57;100751.47;;;19.08;56.57
47742;BME280;33504;52.066;6.096;2023-10-13T04:05:25;100749.67;;;18.87;57.13
47742;BME280;33504;52.066;6.096;2023-10-13T04:07:52;100732.90;;;18.87;57.29
47742;BME280;33504;52.066;6.096;2023-10-13T04:10:19;100729.54;;;18.71;57.92
47742;BME280;33504;52.066;6.096;2023-10-13T04:12:46;100729.61;;;18.65;58.38
47742;BME280;33504;52.066;6.096;2023-10-13T04:15:13;100717.75;;;18.82;58.05
47742;BME280;33504;52.066;6.096;2023-10-13T04:17:40;100720.93;;;18.70;58.49
47742;BME280;33504;52.066;6.096;2023-10-13T04:20:08;100712.61;;;18.78;58.28
47742;BME280;33504;52.066;6.096;2023-10-13T04:22:36;100703.02;;;18.77;58.31
47742;BME280;33504;52.066;6.096;2023-10-13T04:25:04;100699.84;;;18.16;58.65
47742;BME280;33504;52.066;6.096;2023-10-13T04:27:31;100688.04;;;18.39;58.68
47742;BME280;33504;52.066;6.096;2023-10-13T04:29:58;100681.61;;;18.98;58.05
47742;BME280;33504;52.066;6.096;2023-10-13T04:32:25;100674.93;;;18.48;58.84
47742;BME280;33504;52.066;6.096;2023-10-13T04:34:52;100662.96;;;18.06;59.92
47742;BME280;33504;52.066;6.096;2023-10-13T04:37:19;100651.15;;;18.19;59.63
47742;BME280;33504;52.066;6.096;2023-10-13T04:39:46;100655.92;;;18.48;58.87
47742;BME280;33504;52.066;6.096;2023-10-13T04:42:13;100648.38;;;18.67;58.48
47742;BME280;33504;52.066;6.096;2023-10-13T04:44:40;100649.65;;;18.51;58.74
47742;BME280;33504;52.066;6.096;2023-10-13T04:47:08;100649.34;;;18.75;58.41
47742;BME280;33504;52.066;6.096;2023-10-13T04:49:39;100649.19;;;18.63;58.52
47742;BME280;33504;52.066;6.096;2023-10-13T04:52:06;100621.96;;;18.51;58.79
47742;BME280;33504;52.066;6.096;2023-10-13T04:54:35;100610.82;;;17.99;59.80
47742;BME280;33504;52.066;6.096;2023-10-13T04:57:02;100608.89;;;18.10;59.66
47742;BME280;33504;52.066;6.096;2023-10-13T04:59:30;100598.63;;;17.45;61.73
47742;BME280;33504;52.066;6.096;2023-10-13T05:01:56;100592.81;;;17.55;61.12
47742;BME280;33504;52.066;6.096;2023-10-13T05:04:24;100586.52;;;17.78;60.68
47742;BME280;33504;52.066;6.096;2023-10-13T05:06:50;100597.28;;;18.00;60.29
47742;BME280;33504;52.066;6.096;2023-10-13T05:09:17;100583.24;;;18.51;59.16
47742;BME280;33504;52.066;6.096;2023-10-13T05:11:44;100580.56;;;18.26;59.78
47742;BME280;33504;52.066;6.096;2023-10-13T05:14:11;100579.02;;;18.20;59.93
47742;BME280;33504;52.066;6.096;2023-10-13T05:16:37;100573.82;;;18.01;60.60
47742;BME280;33504;52.066;6.096;2023-10-13T05:19:04;100557.46;;;18.31;60.03
47742;BME280;33504;52.066;6.096;2023-10-13T05:21:31;100569.30;;;17.80;61.33
47742;BME280;33504;52.066;6.096;2023-10-13T05:23:58;100568.70;;;17.73;61.83
47742;BME280;33504;52.066;6.096;2023-10-13T05:26:25;100571.41;;;18.56;60.73
47742;BME280;33504;52.066;6.096;2023-10-13T05:28:53;100575.38;;;18.01;61.38
47742;BME280;33504;52.066;6.096;2023-10-13T05:31:20;100551.80;;;18.10;61.55
47742;BME280;33504;52.066;6.096;2023-10-13T05:33:46;100568.02;;;18.13;61.64
47742;BME280;33504;52.066;6.096;2023-10-13T05:36:13;100583.40;;;18.63;60.64
47742;BME280;33504;52.066;6.096;2023-10-13T05:38:40;100575.35;;;18.37;60.64
47742;BME280;33504;52.066;6.096;2023-10-13T05:41:08;100562.06;;;18.55;60.49
47742;BME280;33504;52.066;6.096;2023-10-13T05:43:35;100556.25;;;18.36;61.02
47742;BME280;33504;52.066;6.096;2023-10-13T05:46:03;100551.25;;;17.84;63.30
47742;BME280;33504;52.066;6.096;2023-10-13T05:48:30;100563.14;;;18.13;63.11
47742;BME280;33504;52.066;6.096;2023-10-13T05:51:00;100568.55;;;17.96;63.20
47742;BME280;33504;52.066;6.096;2023-10-13T05:53:27;100567.11;;;18.35;62.51
47742;BME280;33504;52.066;6.096;2023-10-13T05:56:00;100564.25;;;18.15;63.12
47742;BME280;33504;52.066;6.096;2023-10-13T05:58:26;100554.19;;;18.53;62.36
47742;BME280;33504;52.066;6.096;2023-10-13T06:00:54;100560.57;;;18.02;63.14
47742;BME280;33504;52.066;6.096;2023-10-13T06:03:20;100556.28;;;18.53;62.04
47742;BME280;33504;52.066;6.096;2023-10-13T06:05:49;100558.56;;;18.38;61.81
47742;BME280;33504;52.066;6.096;2023-10-13T06:08:15;100561.58;;;18.88;60.51
47742;BME280;33504;52.066;6.096;2023-10-13T06:10:43;100563.14;;;18.97;60.59
47742;BME280;33504;52.066;6.096;2023-10-13T06:13:10;100556.92;;;19.02;60.34
47742;BME280;33504;52.066;6.096;2023-10-13T06:15:37;100556.88;;;19.28;59.87
47742;BME280;33504;52.066;6.096;2023-10-13T06:18:04;100555.28;;;19.42;59.63
47742;BME280;33504;52.066;6.096;2023-10-13T06:20:31;100562.85;;;19.11;59.76
47742;BME280;33504;52.066;6.096;2023-10-13T06:22:58;100553.55;;;19.32;59.48
47742;BME280;33504;52.066;6.096;2023-10-13T06:25:25;100556.63;;;19.15;59.84
47742;BME280;33504;52.066;6.096;2023-10-13T06:27:52;100555.91;;;19.19;60.03
47742;BME280;33504;52.066;6.096;2023-10-13T06:30:19;100555.30;;;19.24;59.63
47742;BME280;33504;52.066;6.096;2023-10-13T06:32:46;100555.96;;;19.60;59.42
47742;BME280;33504;52.066;6.096;2023-10-13T06:35:14;100553.01;;;19.51;58.99
47742;BME280;33504;52.066;6.096;2023-10-13T06:37:42;100546.47;;;19.26;59.67
47742;BME280;33504;52.066;6.096;2023-10-13T06:40:11;100548.38;;;19.39;59.43
47742;BME280;33504;52.066;6.096;2023-10-13T06:42:39;100549.24;;;18.80;61.05
47742;BME280;33504;52.066;6.096;2023-10-13T06:45:07;100547.47;;;18.88;60.59
47742;BME280;33504;52.066;6.096;2023-10-13T06:47:34;100540.67;;;18.96;60.74
47742;BME280;33504;52.066;6.096;2023-10-13T06:50:01;100534.57;;;19.65;59.93
47742;BME280;33504;52.066;6.096;2023-10-13T06:52:29;100528.96;;;19.70;59.77
47742;BME280;33504;52.066;6.096;2023-10-13T06:54:56;100529.10;;;19.43;59.77
47742;BME280;33504;52.066;6.096;2023-10-13T06:57:23;100525.15;;;19.44;59.74
47742;BME280;33504;52.066;6.096;2023-10-13T06:59:51;100523.18;;;19.49;59.91
47742;BME280;33504;52.066;6.096;2023-10-13T07:02:18;100522.10;;;19.13;60.13
47742;BME280;33504;52.066;6.096;2023-10-13T07:04:45;100519.07;;;19.41;60.04
47742;BME280;33504;52.066;6.096;2023-10-13T07:07:12;100515.43;;;19.15;60.15
47742;BME280;33504;52.066;6.096;2023-10-13T07:09:39;100512.33;;;19.17;60.09
47742;BME280;33504;52.066;6.096;2023-10-13T07:12:07;100508.86;;;19.61;59.19
47742;BME280;33504;52.066;6.096;2023-10-13T07:14:34;100509.58;;;19.74;58.86
47742;BME280;33504;52.066;6.096;2023-10-13T07:17:04;100510.30;;;19.46;59.44
47742;BME280;33504;52.066;6.096;2023-10-13T07:19:32;100506.34;;;19.45;59.39
47742;BME280;33504;52.066;6.096;2023-10-13T07:21:59;100505.18;;;19.47;59.48
47742;BME280;33504;52.066;6.096;2023-10-13T07:24:27;100507.18;;;19.12;60.15
47742;BME280;33504;52.066;6.096;2023-10-13T07:26:54;100507.13;;;19.24;60.02
47742;BME280;33504;52.066;6.096;2023-10-13T07:29:22;100511.55;;;18.96;61.79
47742;BME280;33504;52.066;6.096;2023-10-13T07:31:49;100518.79;;;19.28;60.58
47742;BME280;33504;52.066;6.096;2023-10-13T07:34:16;100501.53;;;19.37;60.30
47742;BME280;33504;52.066;6.096;2023-10-13T07:36:44;100485.38;;;18.82;60.94
47742;BME280;33504;52.066;6.096;2023-10-13T07:39:11;100482.60;;;19.25;60.50
47742;BME280;33504;52.066;6.096;2023-10-13T07:41:38;100478.54;;;19.34;60.18
47742;BME280;33504;52.066;6.096;2023-10-13T07:44:05;100476.05;;;19.81;59.76
47742;BME280;33504;52.066;6.096;2023-10-13T07:46:32;100458.70;;;19.09;59.94
47742;BME280;33504;52.066;6.096;2023-10-13T07:49:00;100456.30;;;19.21;60.38
47742;BME280;33504;52.066;6.096;2023-10-13T07:51:27;100446.40;;;18.83;60.87
47742;BME280;33504;52.066;6.096;2023-10-13T07:53:53;100444.96;;;18.54;61.27
47742;BME280;33504;52.066;6.096;2023-10-13T07:56:20;100446.10;;;19.30;60.62
47742;BME280;33504;52.066;6.096;2023-10-13T07:58:47;100444.25;;;19.50;60.07
47742;BME280;33504;52.066;6.096;2023-10-13T08:01:15;100442.54;;;19.28;60.09
47742;BME280;33504;52.066;6.096;2023-10-13T08:03:41;100435.64;;;18.82;60.40
47742;BME280;33504;52.066;6.096;2023-10-13T08:06:09;100435.76;;;18.99;60.98
47742;BME280;33504;52.066;6.096;2023-10-13T08:08:36;100431.36;;;19.09;60.90
47742;BME280;33504;52.066;6.096;2023-10-13T08:11:04;100421.30;;;18.74;61.26
47742;BME280;33504;52.066;6.096;2023-10-13T08:13:31;100428.57;;;19.38;60.44
47742;BME280;33504;52.066;6.096;2023-10-13T08:16:01;100421.14;;;18.86;60.67
47742;BME280;33504;52.066;6.096;2023-10-13T08:18:27;100424.52;;;18.87;60.54
47742;BME280;33504;52.066;6.096;2023-10-13T08:20:54;100421.05;;;18.92;60.98
47742;BME280;33504;52.066;6.096;2023-10-13T08:23:21;100421.64;;;19.15;60.59
47742;BME280;33504;52.066;6.096;2023-10-13T08:25:49;100427.59;;;19.01;60.50
47742;BME280;33504;52.066;6.096;2023-10-13T08:28:16;100419.13;;;19.39;60.55
47742;BME280;33504;52.066;6.096;2023-10-13T08:30:42;100426.79;;;19.84;59.68
47742;BME280;33504;52.066;6.096;2023-10-13T08:33:09;100430.91;;;19.33;60.27
47742;BME280;33504;52.066;6.096;2023-10-13T08:35:37;100418.88;;;19.07;60.93
47742;BME280;33504;52.066;6.096;2023-10-13T08:38:04;100420.14;;;18.54;61.50
47742;BME280;33504;52.066;6.096;2023-10-13T08:40:31;100407.74;;;18.95;61.13
47742;BME280;33504;52.066;6.096;2023-10-13T08:43:02;100412.67;;;19.49;60.25
47742;BME280;33504;52.066;6.096;2023-10-13T08:45:30;100416.02;;;19.29;59.76
47742;BME280;33504;52.066;6.096;2023-10-13T08:47:59;100411.88;;;19.67;59.52
47742;BME280;33504;52.066;6.096;2023-10-13T08:50:26;100407.62;;;19.76;59.26
47742;BME280;33504;52.066;6.096;2023-10-13T08:52:54;100408.45;;;19.95;58.76
47742;BME280;33504;52.066;6.096;2023-10-13T08:55:21;100404.49;;;19.90;58.97
47742;BME280;33504;52.066;6.096;2023-10-13T08:57:48;100390.85;;;20.16;58.64
47742;BME280;33504;52.066;6.096;2023-10-13T09:00:16;100390.26;;;19.64;58.98
47742;BME280;33504;52.066;6.096;2023-10-13T09:02:43;100384.45;;;20.28;58.07
47742;BME280;33504;52.066;6.096;2023-10-13T09:05:10;100380.55;;;20.31;58.24
47742;BME280;33504;52.066;6.096;2023-10-13T09:07:44;100380.07;;;20.00;58.47
47742;BME280;33504;52.066;6.096;2023-10-13T09:10:22;100376.17;;;20.22;58.26
47742;BME280;33504;52.066;6.096;2023-10-13T09:12:54;100382.00;;;19.57;58.89
47742;BME280;33504;52.066;6.096;2023-10-13T09:15:29;100373.18;;;20.01;58.08
47742;BME280;33504;52.066;6.096;2023-10-13T09:17:55;100375.29;;;20.30;57.65
47742;BME280;33504;52.066;6.096;2023-10-13T09:20:31;100377.82;;;20.19;57.32
47742;BME280;33504;52.066;6.096;2023-10-13T09:22:58;100369.83;;;19.95;57.36
47742;BME280;33504;52.066;6.096;2023-10-13T09:25:25;100368.78;;;20.33;56.52
47742;BME280;33504;52.066;6.096;2023-10-13T09:27:53;100367.93;;;20.33;57.14
47742;BME280;33504;52.066;6.096;2023-10-13T09:30:20;100367.82;;;20.32;56.63
47742;BME280;33504;52.066;6.096;2023-10-13T09:32:47;100361.19;;;20.38;56.00
47742;BME280;33504;52.066;6.096;2023-10-13T09:35:18;100353.17;;;20.59;55.78
47742;BME280;33504;52.066;6.096;2023-10-13T09:37:45;100350.56;;;20.06;55.96
47742;BME280;33504;52.066;6.096;2023-10-13T09:40:17;100342.72;;;20.42;55.58
47742;BME280;33504;52.066;6.096;2023-10-13T09:42:45;100341.95;;;20.45;55.19
47742;BME280;33504;52.066;6.096;2023-10-13T09:45:13;100346.65;;;20.03;55.44
47742;BME280;33504;52.066;6.096;2023-10-13T09:47:40;100338.30;;;20.37;55.30
47742;BME280;33504;52.066;6.096;2023-10-13T09:50:08;100345.91;;;20.30;55.00
47742;BME280;33504;52.066;6.096;2023-10-13T09:52:41;100340.29;;;20.80;54.36
47742;BME280;33504;52.066;6.096;2023-10-13T09:55:17;100340.10;;;20.06;55.26
47742;BME280;33504;52.066;6.096;2023-10-13T09:57:53;100341.04;;;20.61;54.82
47742;BME280;33504;52.066;6.096;2023-10-13T10:00:22;100340.60;;;20.66;54.15
47742;BME280;33504;52.066;6.096;2023-10-13T10:02:50;100344.59;;;20.14;54.90
47742;BME280;33504;52.066;6.096;2023-10-13T10:05:24;100352.07;;;20.87;53.75
47742;BME280;33504;52.066;6.096;2023-10-13T10:07:55;100357.10;;;20.97;53.26
47742;BME280;33504;52.066;6.096;2023-10-13T10:10:22;100355.68;;;20.39;54.79
47742;BME280;33504;52.066;6.096;2023-10-13T10:12:59;100351.93;;;20.97;53.71
47742;BME280;33504;52.066;6.096;2023-10-13T10:15:30;100346.94;;;20.76;53.30
47742;BME280;33504;52.066;6.096;2023-10-13T10:18:00;100327.74;;;21.34;52.68
47742;BME280;33504;52.066;6.096;2023-10-13T10:20:28;100316.66;;;21.25;52.72
47742;BME280;33504;52.066;6.096;2023-10-13T10:22:56;100327.22;;;21.07;51.94
47742;BME280;33504;52.066;6.096;2023-10-13T10:25:29;100324.61;;;21.36;52.02
47742;BME280;33504;52.066;6.096;2023-10-13T10:27:56;100317.42;;;20.78;52.70
47742;BME280;33504;52.066;6.096;2023-10-13T10:30:25;100311.08;;;21.02;52.39
47742;BME280;33504;52.066;6.096;2023-10-13T10:32:55;100310.17;;;21.35;51.49
47742;BME280;33504;52.066;6.096;2023-10-13T10:35:23;100300.95;;;21.29;51.56
47742;BME280;33504;52.066;6.096;2023-10-13T10:37:51;100294.24;;;20.97;52.05
47742;BME280;33504;52.066;6.096;2023-10-13T10:40:18;100295.33;;;21.31;51.20
47742;BME280;33504;52.066;6.096;2023-10-13T10:42:50;100296.64;;;21.12;51.83
47742;BME280;33504;52.066;6.096;2023-10-13T10:45:17;100298.01;;;20.99;51.52
47742;BME280;33504;52.066;6.096;2023-10-13T10:47:47;100287.21;;;20.93;51.47
47742;BME280;33504;52.066;6.096;2023-10-13T10:50:25;100276.46;;;20.90;51.62
47742;BME280;33504;52.066;6.096;2023-10-13T10:52:54;100267.41;;;21.05;51.17
47742;BME280;33504;52.066;6.096;2023-10-13T10:55:20;100265.58;;;20.75;52.37
47742;BME280;33504;52.066;6.096;2023-10-13T10:57:58;100265.31;;;20.70;51.67
47742;BME280;33504;52.066;6.096;2023-10-13T11:00:25;100250.82;;;20.87;52.05
47742;BME280;33504;52.066;6.096;2023-10-13T11:02:54;100249.46;;;21.05;50.67
47742;BME280;33504;52.066;6.096;2023-10-13T11:05:21;100252.57;;;21.32;50.66
47742;BME280;33504;52.066;6.096;2023-10-13T11:07:48;100249.13;;;20.98;51.22
47742;BME280;33504;52.066;6.096;2023-10-13T11:10:15;100241.66;;;21.49;50.26
47742;BME280;33504;52.066;6.096;2023-10-13T11:12:54;100244.29;;;21.28;49.82
47742;BME280;33504;52.066;6.096;2023-10-13T11:15:21;100226.15;;;21.40;50.65
47742;BME280;33504;52.066;6.096;2023-10-13T11:17:48;100237.59;;;21.02;50.49
47742;BME280;33504;52.066;6.096;2023-10-13T11:20:18;100235.38;;;21.43;49.93
47742;BME280;33504;52.066;6.096;2023-10-13T11:22:47;100222.19;;;21.55;50.13
47742;BME280;33504;52.066;6.096;2023-10-13T11:25:23;100230.15;;;21.57;48.91
47742;BME280;33504;52.066;6.096;2023-10-13T11:27:50;100225.87;;;21.13;49.76
47742;BME280;33504;52.066;6.096;2023-10-13T11:30:18;100215.73;;;21.07;50.35
47742;BME280;33504;52.066;6.096;2023-10-13T11:32:56;100215.33;;;20.91;50.65
47742;BME280;33504;52.066;6.096;2023-10-13T11:35:23;100215.17;;;20.56;50.77
47742;BME280;33504;52.066;6.096;2023-10-13T11:37:51;100210.73;;;20.89;50.07
47742;BME280;33504;52.066;6.096;2023-10-13T11:40:18;100209.60;;;20.98;49.60
47742;BME280;33504;52.066;6.096;2023-10-13T11:42:45;100208.59;;;21.16;48.52
47742;BME280;33504;52.066;6.096;2023-10-13T11:45:12;100195.45;;;21.25;49.48
47742;BME280;33504;52.066;6.096;2023-10-13T11:47:39;100197.08;;;20.95;48.60
47742;BME280;33504;52.066;6.096;2023-10-13T11:50:06;100196.00;;;21.39;48.25
47742;BME280;33504;52.066;6.096;2023-10-13T11:52:33;100187.16;;;21.01;48.05
47742;BME280;33504;52.066;6.096;2023-10-13T11:55:00;100190.03;;;20.94;48.23
47742;BME280;33504;52.066;6.096;2023-10-13T11:57:27;100182.94;;;20.81;47.89
47742;BME280;33504;52.066;6.096;2023-10-13T11:59:54;100192.84;;;21.68;46.64
47742;BME280;33504;52.066;6.096;2023-10-13T12:02:21;100178.05;;;21.35;47.26
47742;BME280;33504;52.066;6.096;2023-10-13T12:04:48;100172.59;;;21.49;46.05
47742;BME280;33504;52.066;6.096;2023-10-13T12:07:15;100177.46;;;21.13;46.41
47742;BME280;33504;52.066;6.096;2023-10-13T12:09:43;100160.55;;;21.15;46.78
47742;BME280;33504;52.066;6.096;2023-10-13T12:12:10;100168.11;;;21.40;47.01
47742;BME280;33504;52.066;6.096;2023-10-13T12:14:36;100165.40;;;21.56;46.53
47742;BME280;33504;52.066;6.096;2023-10-13T12:17:04;100167.24;;;21.88;45.34
47742;BME280;33504;52.066;6.096;2023-10-13T12:19:31;100162.44;;;22.03;44.82
47742;BME280;33504;52.066;6.096;2023-10-13T12:21:58;100178.21;;;22.07;45.65
47742;BME280;33504;52.066;6.096;2023-10-13T12:24:27;100147.00;;;22.14;44.68
47742;BME280;33504;52.066;6.096;2023-10-13T12:26:54;100157.28;;;21.39;44.92
47742;BME280;33504;52.066;6.096;2023-10-13T12:29:23;100146.37;;;22.16;44.63
47742;BME280;33504;52.066;6.096;2023-10-13T12:31:50;100154.52;;;22.26;45.20
47742;BME280;33504;52.066;6.096;2023-10-13T12:34:17;100141.74;;;21.85;44.84
47742;BME280;33504;52.066;6.096;2023-10-13T12:36:45;100152.15;;;22.09;44.47
47742;BME280;33504;52.066;6.096;2023-10-13T12:39:12;100155.11;;;21.84;44.94
47742;BME280;33504;52.066;6.096;2023-10-13T12:41:39;100146.09;;;21.92;44.53
47742;BME280;33504;52.066;6.096;2023-10-13T12:44:06;100147.70;;;21.94;44.73
47742;BME280;33504;52.066;6.096;2023-10-13T12:46:33;100145.47;;;22.34;45.13
47742;BME280;33504;52.066;6.096;2023-10-13T12:49:00;100142.81;;;22.20;44.59
47742;BME280;33504;52.066;6.096;2023-10-13T12:51:28;100146.51;;;22.01;44.82
47742;BME280;33504;52.066;6.096;2023-10-13T12:53:56;100132.63;;;22.36;44.34